sensor_id;sensor_type;location;lat;lon;timestamp;P1;durP1;ratioP1;P2;durP2;ratioP2
74375;SDS011;62812;55.188;61.302;2023-05-07T00:00:55;12.80;;;4.72;;
74375;SDS011;62812;55.188;61.302;2023-05-07T00:03:22;11.65;;;4.60;;
74375;SDS011;62812;55.188;61.302;2023-05-07T00:05:49;10.32;;;4.28;;
74375;SDS011;62812;55.188;61.302;2023-05-07T00:08:20;10.50;;;4.60;;
74375;SDS011;62812;55.188;61.302;2023-05-07T00:10:46;10.13;;;4.68;;
74375;SDS011;62812;55.188;61.302;2023-05-07T00:13:13;9.20;;;4.25;;
74375;SDS011;62812;55.188;61.302;2023-05-07T00:15:41;12.30;;;4.55;;
74375;SDS011;62812;55.188;61.302;2023-05-07T00:18:08;10.05;;;4.18;;
74375;SDS011;62812;55.188;61.302;2023-05-07T00:20:35;8.18;;;4.00;;
74375;SDS011;62812;55.188;61.302;2023-05-07T00:23:02;10.90;;;4.60;;
74375;SDS011;62812;55.188;61.302;2023-05-07T00:25:30;12.23;;;4.50;;
74375;SDS011;62812;55.188;61.302;2023-05-07T00:27:57;13.05;;;4.72;;
74375;SDS011;62812;55.188;61.302;2023-05-07T00:30:29;18.13;;;4.53;;
74375;SDS011;62812;55.188;61.302;2023-05-07T00:32:56;12.52;;;4.60;;
74375;SDS011;62812;55.188;61.302;2023-05-07T00:35:23;8.90;;;4.20;;
74375;SDS011;62812;55.188;61.302;2023-05-07T00:37:50;11.00;;;4.40;;
74375;SDS011;62812;55.188;61.302;2023-05-07T00:40:17;11.40;;;3.80;;
74375;SDS011;62812;55.188;61.302;2023-05-07T00:42:45;10.23;;;3.92;;
74375;SDS011;62812;55.188;61.302;2023-05-07T00:45:14;10.88;;;3.80;;
74375;SDS011;62812;55.188;61.302;2023-05-07T00:47:41;14.13;;;4.00;;
74375;SDS011;62812;55.188;61.302;2023-05-07T00:50:09;9.48;;;3.85;;
74375;SDS011;62812;55.188;61.302;2023-05-07T00:52:39;13.82;;;3.92;;
74375;SDS011;62812;55.188;61.302;2023-05-07T00:55:07;11.70;;;3.60;;
74375;SDS011;62812;55.188;61.302;2023-05-07T00:57:35;13.45;;;3.65;;
74375;SDS011;62812;55.188;61.302;2023-05-07T01:00:05;11.82;;;3.63;;
74375;SDS011;62812;55.188;61.302;2023-05-07T01:02:34;13.75;;;3.40;;
74375;SDS011;62812;55.188;61.302;2023-05-07T01:05:02;13.07;;;3.80;;
74375;SDS011;62812;55.188;61.302;2023-05-07T01:07:32;9.70;;;3.35;;
74375;SDS011;62812;55.188;61.302;2023-05-07T01:10:00;12.88;;;3.80;;
74375;SDS011;62812;55.188;61.302;2023-05-07T01:12:28;9.80;;;3.40;;
74375;SDS011;62812;55.188;61.302;2023-05-07T01:14:55;11.00;;;3.55;;
74375;SDS011;62812;55.188;61.302;2023-05-07T01:17:24;10.43;;;3.80;;
74375;SDS011;62812;55.188;61.302;2023-05-07T01:19:51;8.40;;;3.45;;
74375;SDS011;62812;55.188;61.302;2023-05-07T01:22:24;10.68;;;3.45;;
74375;SDS011;62812;55.188;61.302;2023-05-07T01:24:56;8.55;;;3.83;;
74375;SDS011;62812;55.188;61.302;2023-05-07T01:27:25;11.57;;;3.55;;
74375;SDS011;62812;55.188;61.302;2023-05-07T01:29:52;7.38;;;3.40;;
74375;SDS011;62812;55.188;61.302;2023-05-07T01:32:20;10.07;;;3.50;;
74375;SDS011;62812;55.188;61.302;2023-05-07T01:34:52;10.18;;;3.58;;
74375;SDS011;62812;55.188;61.302;2023-05-07T01:37:21;10.52;;;3.63;;
74375;SDS011;62812;55.188;61.302;2023-05-07T01:39:50;9.32;;;3.88;;
74375;SDS011;62812;55.188;61.302;2023-05-07T01:42:17;11.15;;;3.60;;
74375;SDS011;62812;55.188;61.302;2023-05-07T01:44:45;10.68;;;3.88;;
74375;SDS011;62812;55.188;61.302;2023-05-07T01:47:12;8.38;;;3.20;;
74375;SDS011;62812;55.188;61.302;2023-05-07T01:49:39;12.95;;;4.13;;
74375;SDS011;62812;55.188;61.302;2023-05-07T01:52:08;10.23;;;4.05;;
74375;SDS011;62812;55.188;61.302;2023-05-07T01:54:36;8.63;;;3.80;;
74375;SDS011;62812;55.188;61.302;2023-05-07T01:57:04;12.68;;;3.65;;
74375;SDS011;62812;55.188;61.302;2023-05-07T01:59:31;10.35;;;3.70;;
74375;SDS011;62812;55.188;61.302;2023-05-07T02:01:58;11.35;;;3.80;;
74375;SDS011;62812;55.188;61.302;2023-05-07T02:04:25;15.90;;;3.92;;
74375;SDS011;62812;55.188;61.302;2023-05-07T02:06:52;8.73;;;3.60;;
74375;SDS011;62812;55.188;61.302;2023-05-07T02:09:19;12.98;;;4.10;;
74375;SDS011;62812;55.188;61.302;2023-05-07T02:11:46;12.05;;;4.40;;
74375;SDS011;62812;55.188;61.302;2023-05-07T02:14:14;11.80;;;4.30;;
74375;SDS011;62812;55.188;61.302;2023-05-07T02:16:41;10.20;;;3.92;;
74375;SDS011;62812;55.188;61.302;2023-05-07T02:19:08;15.30;;;4.38;;
74375;SDS011;62812;55.188;61.302;2023-05-07T02:21:35;13.55;;;4.10;;
74375;SDS011;62812;55.188;61.302;2023-05-07T02:24:02;20.77;;;4.75;;
74375;SDS011;62812;55.188;61.302;2023-05-07T02:26:30;11.95;;;4.15;;
74375;SDS011;62812;55.188;61.302;2023-05-07T02:28:57;17.88;;;4.80;;
74375;SDS011;62812;55.188;61.302;2023-05-07T02:31:27;11.85;;;4.95;;
74375;SDS011;62812;55.188;61.302;2023-05-07T02:33:54;11.15;;;4.45;;
74375;SDS011;62812;55.188;61.302;2023-05-07T02:36:21;18.42;;;4.47;;
74375;SDS011;62812;55.188;61.302;2023-05-07T02:38:48;22.13;;;5.38;;
74375;SDS011;62812;55.188;61.302;2023-05-07T02:41:15;17.48;;;4.78;;
74375;SDS011;62812;55.188;61.302;2023-05-07T02:43:41;12.57;;;4.45;;
74375;SDS011;62812;55.188;61.302;2023-05-07T02:46:08;17.65;;;4.63;;
74375;SDS011;62812;55.188;61.302;2023-05-07T02:48:37;23.55;;;5.50;;
74375;SDS011;62812;55.188;61.302;2023-05-07T02:51:04;17.20;;;5.35;;
74375;SDS011;62812;55.188;61.302;2023-05-07T02:53:31;12.00;;;4.60;;
74375;SDS011;62812;55.188;61.302;2023-05-07T02:55:59;9.55;;;3.95;;
74375;SDS011;62812;55.188;61.302;2023-05-07T02:58:27;10.85;;;4.50;;
74375;SDS011;62812;55.188;61.302;2023-05-07T03:00:54;16.83;;;4.60;;
74375;SDS011;62812;55.188;61.302;2023-05-07T03:03:22;13.43;;;4.30;;
74375;SDS011;62812;55.188;61.302;2023-05-07T03:05:50;11.82;;;4.40;;
74375;SDS011;62812;55.188;61.302;2023-05-07T03:08:17;12.05;;;4.38;;
74375;SDS011;62812;55.188;61.302;2023-05-07T03:10:45;11.65;;;4.30;;
74375;SDS011;62812;55.188;61.302;2023-05-07T03:13:12;12.75;;;4.43;;
74375;SDS011;62812;55.188;61.302;2023-05-07T03:15:39;12.05;;;4.50;;
74375;SDS011;62812;55.188;61.302;2023-05-07T03:18:06;15.05;;;4.25;;
74375;SDS011;62812;55.188;61.302;2023-05-07T03:20:33;10.65;;;4.68;;
74375;SDS011;62812;55.188;61.302;2023-05-07T03:23:03;14.38;;;4.75;;
74375;SDS011;62812;55.188;61.302;2023-05-07T03:25:31;12.27;;;4.78;;
74375;SDS011;62812;55.188;61.302;2023-05-07T03:27:59;13.77;;;5.07;;
74375;SDS011;62812;55.188;61.302;2023-05-07T03:30:26;18.02;;;5.72;;
74375;SDS011;62812;55.188;61.302;2023-05-07T03:32:53;17.83;;;5.57;;
74375;SDS011;62812;55.188;61.302;2023-05-07T03:35:21;19.10;;;5.93;;
74375;SDS011;62812;55.188;61.302;2023-05-07T03:37:48;9.80;;;4.60;;
74375;SDS011;62812;55.188;61.302;2023-05-07T03:40:18;16.20;;;4.68;;
74375;SDS011;62812;55.188;61.302;2023-05-07T03:42:45;16.02;;;4.82;;
74375;SDS011;62812;55.188;61.302;2023-05-07T03:45:11;12.65;;;4.30;;
74375;SDS011;62812;55.188;61.302;2023-05-07T03:47:38;12.18;;;4.30;;
74375;SDS011;62812;55.188;61.302;2023-05-07T03:50:05;13.15;;;4.55;;
74375;SDS011;62812;55.188;61.302;2023-05-07T03:52:33;17.05;;;4.88;;
74375;SDS011;62812;55.188;61.302;2023-05-07T03:55:00;10.75;;;4.63;;
74375;SDS011;62812;55.188;61.302;2023-05-07T03:57:28;14.25;;;4.60;;
74375;SDS011;62812;55.188;61.302;2023-05-07T03:59:55;8.57;;;3.90;;
74375;SDS011;62812;55.188;61.302;2023-05-07T04:02:22;13.05;;;4.30;;
74375;SDS011;62812;55.188;61.302;2023-05-07T04:04:49;15.77;;;4.93;;
74375;SDS011;62812;55.188;61.302;2023-05-07T04:07:16;13.05;;;3.88;;
74375;SDS011;62812;55.188;61.302;2023-05-07T04:09:43;10.13;;;4.10;;
74375;SDS011;62812;55.188;61.302;2023-05-07T04:12:10;16.48;;;4.78;;
74375;SDS011;62812;55.188;61.302;2023-05-07T04:14:39;17.48;;;5.22;;
74375;SDS011;62812;55.188;61.302;2023-05-07T04:17:06;13.65;;;4.50;;
74375;SDS011;62812;55.188;61.302;2023-05-07T04:19:35;15.38;;;4.80;;
74375;SDS011;62812;55.188;61.302;2023-05-07T04:22:02;10.98;;;4.80;;
74375;SDS011;62812;55.188;61.302;2023-05-07T04:24:31;17.10;;;4.63;;
74375;SDS011;62812;55.188;61.302;2023-05-07T04:26:59;12.95;;;4.80;;
74375;SDS011;62812;55.188;61.302;2023-05-07T04:29:27;13.13;;;4.72;;
74375;SDS011;62812;55.188;61.302;2023-05-07T04:31:57;12.57;;;5.38;;
74375;SDS011;62812;55.188;61.302;2023-05-07T04:34:24;16.52;;;5.03;;
74375;SDS011;62812;55.188;61.302;2023-05-07T04:36:51;16.10;;;4.88;;
74375;SDS011;62812;55.188;61.302;2023-05-07T04:39:19;18.48;;;5.03;;
74375;SDS011;62812;55.188;61.302;2023-05-07T04:41:46;15.23;;;5.30;;
74375;SDS011;62812;55.188;61.302;2023-05-07T04:44:12;26.52;;;5.22;;
74375;SDS011;62812;55.188;61.302;2023-05-07T04:46:42;17.70;;;5.38;;
74375;SDS011;62812;55.188;61.302;2023-05-07T04:49:11;18.98;;;5.88;;
74375;SDS011;62812;55.188;61.302;2023-05-07T04:51:38;21.30;;;5.72;;
74375;SDS011;62812;55.188;61.302;2023-05-07T04:54:09;14.90;;;5.38;;
74375;SDS011;62812;55.188;61.302;2023-05-07T04:56:36;17.48;;;5.43;;
74375;SDS011;62812;55.188;61.302;2023-05-07T04:59:04;23.10;;;6.40;;
74375;SDS011;62812;55.188;61.302;2023-05-07T05:01:32;16.30;;;5.30;;
74375;SDS011;62812;55.188;61.302;2023-05-07T05:04:00;16.08;;;5.70;;
74375;SDS011;62812;55.188;61.302;2023-05-07T05:06:32;13.45;;;5.28;;
74375;SDS011;62812;55.188;61.302;2023-05-07T05:09:02;17.73;;;5.70;;
74375;SDS011;62812;55.188;61.302;2023-05-07T05:11:31;13.90;;;5.38;;
74375;SDS011;62812;55.188;61.302;2023-05-07T05:13:59;21.30;;;5.50;;
74375;SDS011;62812;55.188;61.302;2023-05-07T05:16:26;13.15;;;5.07;;
74375;SDS011;62812;55.188;61.302;2023-05-07T05:18:54;16.27;;;5.03;;
74375;SDS011;62812;55.188;61.302;2023-05-07T05:21:21;16.05;;;5.28;;
74375;SDS011;62812;55.188;61.302;2023-05-07T05:23:55;17.10;;;5.45;;
74375;SDS011;62812;55.188;61.302;2023-05-07T05:26:23;18.95;;;5.22;;
74375;SDS011;62812;55.188;61.302;2023-05-07T05:28:51;18.77;;;5.53;;
74375;SDS011;62812;55.188;61.302;2023-05-07T05:31:28;14.05;;;5.03;;
74375;SDS011;62812;55.188;61.302;2023-05-07T05:33:55;13.43;;;4.82;;
74375;SDS011;62812;55.188;61.302;2023-05-07T05:36:25;16.73;;;4.63;;
74375;SDS011;62812;55.188;61.302;2023-05-07T05:38:54;13.82;;;4.43;;
74375;SDS011;62812;55.188;61.302;2023-05-07T05:44:34;9.65;;;3.83;;
74375;SDS011;62812;55.188;61.302;2023-05-07T05:47:02;11.95;;;4.30;;
74375;SDS011;62812;55.188;61.302;2023-05-07T05:49:30;15.60;;;4.43;;
74375;SDS011;62812;55.188;61.302;2023-05-07T05:51:59;13.23;;;4.05;;
74375;SDS011;62812;55.188;61.302;2023-05-07T05:54:28;19.75;;;4.65;;
74375;SDS011;62812;55.188;61.302;2023-05-07T05:56:55;17.30;;;4.13;;
74375;SDS011;62812;55.188;61.302;2023-05-07T05:59:22;10.40;;;4.43;;
74375;SDS011;62812;55.188;61.302;2023-05-07T06:04:42;9.38;;;3.13;;
74375;SDS011;62812;55.188;61.302;2023-05-07T06:07:09;8.55;;;3.40;;
74375;SDS011;62812;55.188;61.302;2023-05-07T06:09:39;13.38;;;3.92;;
74375;SDS011;62812;55.188;61.302;2023-05-07T06:12:06;12.68;;;3.55;;
74375;SDS011;62812;55.188;61.302;2023-05-07T06:14:33;10.85;;;3.10;;
74375;SDS011;62812;55.188;61.302;2023-05-07T06:17:01;17.58;;;3.50;;
74375;SDS011;62812;55.188;61.302;2023-05-07T06:19:28;14.02;;;2.85;;
74375;SDS011;62812;55.188;61.302;2023-05-07T06:21:55;17.55;;;3.58;;
74375;SDS011;62812;55.188;61.302;2023-05-07T06:24:22;9.13;;;3.15;;
74375;SDS011;62812;55.188;61.302;2023-05-07T06:26:53;15.40;;;3.85;;
74375;SDS011;62812;55.188;61.302;2023-05-07T06:29:20;11.18;;;3.42;;
74375;SDS011;62812;55.188;61.302;2023-05-07T06:31:54;8.73;;;3.08;;
74375;SDS011;62812;55.188;61.302;2023-05-07T06:34:35;13.25;;;3.10;;
74375;SDS011;62812;55.188;61.302;2023-05-07T06:37:02;14.70;;;3.30;;
74375;SDS011;62812;55.188;61.302;2023-05-07T06:39:29;12.05;;;3.42;;
74375;SDS011;62812;55.188;61.302;2023-05-07T06:41:59;16.52;;;4.22;;
74375;SDS011;62812;55.188;61.302;2023-05-07T06:44:27;9.98;;;3.00;;
74375;SDS011;62812;55.188;61.302;2023-05-07T06:46:56;10.05;;;3.05;;
74375;SDS011;62812;55.188;61.302;2023-05-07T06:49:33;10.45;;;3.60;;
74375;SDS011;62812;55.188;61.302;2023-05-07T06:52:04;7.38;;;3.40;;
74375;SDS011;62812;55.188;61.302;2023-05-07T06:54:38;9.77;;;3.17;;
74375;SDS011;62812;55.188;61.302;2023-05-07T06:57:10;12.80;;;3.35;;
74375;SDS011;62812;55.188;61.302;2023-05-07T06:59:53;27.67;;;4.32;;
74375;SDS011;62812;55.188;61.302;2023-05-07T07:02:21;12.23;;;3.40;;
74375;SDS011;62812;55.188;61.302;2023-05-07T07:04:57;10.13;;;3.50;;
74375;SDS011;62812;55.188;61.302;2023-05-07T07:07:28;9.60;;;3.35;;
74375;SDS011;62812;55.188;61.302;2023-05-07T07:09:57;15.25;;;3.53;;
74375;SDS011;62812;55.188;61.302;2023-05-07T07:12:31;15.73;;;3.63;;
74375;SDS011;62812;55.188;61.302;2023-05-07T07:15:07;31.80;;;3.97;;
74375;SDS011;62812;55.188;61.302;2023-05-07T07:17:42;18.75;;;3.50;;
74375;SDS011;62812;55.188;61.302;2023-05-07T07:20:20;20.60;;;3.60;;
74375;SDS011;62812;55.188;61.302;2023-05-07T07:22:49;17.00;;;3.55;;
74375;SDS011;62812;55.188;61.302;2023-05-07T07:25:17;14.25;;;3.53;;
74375;SDS011;62812;55.188;61.302;2023-05-07T07:27:49;25.17;;;4.13;;
74375;SDS011;62812;55.188;61.302;2023-05-07T07:30:18;14.02;;;3.28;;
74375;SDS011;62812;55.188;61.302;2023-05-07T07:32:45;17.05;;;3.42;;
74375;SDS011;62812;55.188;61.302;2023-05-07T07:35:13;16.60;;;3.42;;
74375;SDS011;62812;55.188;61.302;2023-05-07T07:37:40;23.10;;;3.60;;
74375;SDS011;62812;55.188;61.302;2023-05-07T07:40:08;32.83;;;4.45;;
74375;SDS011;62812;55.188;61.302;2023-05-07T07:42:39;29.92;;;4.28;;
74375;SDS011;62812;55.188;61.302;2023-05-07T07:45:12;22.83;;;3.83;;
74375;SDS011;62812;55.188;61.302;2023-05-07T07:47:39;17.55;;;3.42;;
74375;SDS011;62812;55.188;61.302;2023-05-07T07:50:08;20.75;;;3.92;;
74375;SDS011;62812;55.188;61.302;2023-05-07T07:52:38;35.22;;;4.65;;
74375;SDS011;62812;55.188;61.302;2023-05-07T07:55:11;34.30;;;4.13;;
74375;SDS011;62812;55.188;61.302;2023-05-07T07:57:38;25.83;;;4.60;;
74375;SDS011;62812;55.188;61.302;2023-05-07T08:00:08;27.25;;;4.32;;
74375;SDS011;62812;55.188;61.302;2023-05-07T08:02:42;26.02;;;4.35;;
74375;SDS011;62812;55.188;61.302;2023-05-07T08:05:12;23.02;;;3.88;;
74375;SDS011;62812;55.188;61.302;2023-05-07T08:07:39;28.20;;;4.53;;
74375;SDS011;62812;55.188;61.302;2023-05-07T08:10:07;45.08;;;4.80;;
74375;SDS011;62812;55.188;61.302;2023-05-07T08:12:38;27.58;;;3.80;;
74375;SDS011;62812;55.188;61.302;2023-05-07T08:15:06;26.27;;;4.00;;
74375;SDS011;62812;55.188;61.302;2023-05-07T08:17:36;24.35;;;3.15;;
74375;SDS011;62812;55.188;61.302;2023-05-07T08:20:05;24.17;;;3.50;;
74375;SDS011;62812;55.188;61.302;2023-05-07T08:22:34;142.02;;;11.13;;
74375;SDS011;62812;55.188;61.302;2023-05-07T08:25:03;45.53;;;6.15;;
74375;SDS011;62812;55.188;61.302;2023-05-07T08:27:34;22.02;;;3.88;;
74375;SDS011;62812;55.188;61.302;2023-05-07T08:30:10;28.58;;;4.05;;
74375;SDS011;62812;55.188;61.302;2023-05-07T08:32:38;18.15;;;3.50;;
74375;SDS011;62812;55.188;61.302;2023-05-07T08:35:08;22.27;;;4.00;;
74375;SDS011;62812;55.188;61.302;2023-05-07T08:37:44;36.63;;;3.92;;
74375;SDS011;62812;55.188;61.302;2023-05-07T08:40:12;31.77;;;4.63;;
74375;SDS011;62812;55.188;61.302;2023-05-07T08:42:45;27.98;;;3.40;;
74375;SDS011;62812;55.188;61.302;2023-05-07T08:45:17;25.20;;;3.80;;
74375;SDS011;62812;55.188;61.302;2023-05-07T08:47:47;32.80;;;4.18;;
74375;SDS011;62812;55.188;61.302;2023-05-07T08:50:19;38.97;;;4.57;;
74375;SDS011;62812;55.188;61.302;2023-05-07T08:55:17;26.42;;;4.00;;
74375;SDS011;62812;55.188;61.302;2023-05-07T08:57:50;36.55;;;4.32;;
74375;SDS011;62812;55.188;61.302;2023-05-07T09:00:19;29.58;;;4.20;;
74375;SDS011;62812;55.188;61.302;2023-05-07T09:02:49;23.30;;;3.60;;
74375;SDS011;62812;55.188;61.302;2023-05-07T09:05:16;34.60;;;3.95;;
74375;SDS011;62812;55.188;61.302;2023-05-07T09:07:46;22.42;;;3.63;;
74375;SDS011;62812;55.188;61.302;2023-05-07T09:10:15;22.83;;;3.28;;
74375;SDS011;62812;55.188;61.302;2023-05-07T09:12:42;20.38;;;2.75;;
74375;SDS011;62812;55.188;61.302;2023-05-07T09:15:15;50.42;;;5.72;;
74375;SDS011;62812;55.188;61.302;2023-05-07T09:17:44;29.42;;;4.05;;
74375;SDS011;62812;55.188;61.302;2023-05-07T09:20:13;18.92;;;3.50;;
74375;SDS011;62812;55.188;61.302;2023-05-07T09:22:40;27.10;;;3.78;;
74375;SDS011;62812;55.188;61.302;2023-05-07T09:25:10;23.98;;;3.58;;
74375;SDS011;62812;55.188;61.302;2023-05-07T09:27:37;28.33;;;4.00;;
74375;SDS011;62812;55.188;61.302;2023-05-07T09:30:04;28.23;;;4.10;;
74375;SDS011;62812;55.188;61.302;2023-05-07T09:32:35;23.98;;;3.60;;
74375;SDS011;62812;55.188;61.302;2023-05-07T09:35:04;25.40;;;3.60;;
74375;SDS011;62812;55.188;61.302;2023-05-07T09:37:33;23.98;;;3.67;;
74375;SDS011;62812;55.188;61.302;2023-05-07T09:40:00;54.97;;;6.05;;
74375;SDS011;62812;55.188;61.302;2023-05-07T09:42:30;44.13;;;4.72;;
74375;SDS011;62812;55.188;61.302;2023-05-07T09:44:56;21.13;;;3.78;;
74375;SDS011;62812;55.188;61.302;2023-05-07T09:47:25;26.30;;;4.30;;
74375;SDS011;62812;55.188;61.302;2023-05-07T09:49:59;17.63;;;4.43;;
74375;SDS011;62812;55.188;61.302;2023-05-07T09:54:59;29.55;;;4.15;;
74375;SDS011;62812;55.188;61.302;2023-05-07T09:57:26;23.08;;;4.32;;
74375;SDS011;62812;55.188;61.302;2023-05-07T09:59:58;28.48;;;3.60;;
74375;SDS011;62812;55.188;61.302;2023-05-07T10:02:26;36.22;;;4.70;;
74375;SDS011;62812;55.188;61.302;2023-05-07T10:04:55;16.75;;;3.08;;
74375;SDS011;62812;55.188;61.302;2023-05-07T10:07:24;21.35;;;3.78;;
74375;SDS011;62812;55.188;61.302;2023-05-07T10:09:52;22.35;;;3.60;;
74375;SDS011;62812;55.188;61.302;2023-05-07T10:12:20;20.88;;;3.20;;
74375;SDS011;62812;55.188;61.302;2023-05-07T10:14:49;16.27;;;3.47;;
74375;SDS011;62812;55.188;61.302;2023-05-07T10:17:18;16.75;;;3.55;;
74375;SDS011;62812;55.188;61.302;2023-05-07T10:19:46;25.23;;;4.20;;
74375;SDS011;62812;55.188;61.302;2023-05-07T10:22:13;24.58;;;4.15;;
74375;SDS011;62812;55.188;61.302;2023-05-07T10:24:41;24.77;;;4.70;;
74375;SDS011;62812;55.188;61.302;2023-05-07T10:27:12;23.55;;;4.03;;
74375;SDS011;62812;55.188;61.302;2023-05-07T10:29:43;32.90;;;5.25;;
74375;SDS011;62812;55.188;61.302;2023-05-07T10:32:25;27.02;;;4.68;;
74375;SDS011;62812;55.188;61.302;2023-05-07T10:35:03;32.55;;;4.60;;
74375;SDS011;62812;55.188;61.302;2023-05-07T10:37:35;30.40;;;4.45;;
74375;SDS011;62812;55.188;61.302;2023-05-07T10:40:03;45.55;;;5.78;;
74375;SDS011;62812;55.188;61.302;2023-05-07T10:42:33;96.82;;;7.03;;
74375;SDS011;62812;55.188;61.302;2023-05-07T10:45:11;74.70;;;6.25;;
74375;SDS011;62812;55.188;61.302;2023-05-07T10:50:36;25.25;;;3.38;;
74375;SDS011;62812;55.188;61.302;2023-05-07T10:53:24;31.77;;;3.00;;
74375;SDS011;62812;55.188;61.302;2023-05-07T10:58:52;27.80;;;2.90;;
74375;SDS011;62812;55.188;61.302;2023-05-07T11:04:18;20.55;;;2.15;;
74375;SDS011;62812;55.188;61.302;2023-05-07T11:10:05;22.15;;;2.53;;
74375;SDS011;62812;55.188;61.302;2023-05-07T11:12:54;28.30;;;2.72;;
74375;SDS011;62812;55.188;61.302;2023-05-07T11:15:35;22.20;;;2.00;;
74375;SDS011;62812;55.188;61.302;2023-05-07T11:18:05;27.10;;;2.28;;
74375;SDS011;62812;55.188;61.302;2023-05-07T11:20:47;24.90;;;2.30;;
74375;SDS011;62812;55.188;61.302;2023-05-07T11:26:25;19.10;;;2.22;;
74375;SDS011;62812;55.188;61.302;2023-05-07T11:28:54;15.40;;;2.13;;
74375;SDS011;62812;55.188;61.302;2023-05-07T11:31:22;19.73;;;2.13;;
74375;SDS011;62812;55.188;61.302;2023-05-07T11:36:23;15.05;;;1.80;;
74375;SDS011;62812;55.188;61.302;2023-05-07T11:38:51;25.80;;;2.08;;
74375;SDS011;62812;55.188;61.302;2023-05-07T11:41:21;19.55;;;2.17;;
74375;SDS011;62812;55.188;61.302;2023-05-07T11:46:47;12.43;;;1.92;;
74375;SDS011;62812;55.188;61.302;2023-05-07T11:49:16;15.52;;;1.65;;
74375;SDS011;62812;55.188;61.302;2023-05-07T11:51:46;11.48;;;1.35;;
74375;SDS011;62812;55.188;61.302;2023-05-07T11:56:44;13.85;;;1.30;;
74375;SDS011;62812;55.188;61.302;2023-05-07T11:59:11;11.63;;;0.90;;
74375;SDS011;62812;55.188;61.302;2023-05-07T12:01:45;8.55;;;1.05;;
74375;SDS011;62812;55.188;61.302;2023-05-07T12:04:14;9.70;;;1.05;;
74375;SDS011;62812;55.188;61.302;2023-05-07T12:06:48;7.07;;;0.80;;
74375;SDS011;62812;55.188;61.302;2023-05-07T12:09:17;6.07;;;1.35;;
74375;SDS011;62812;55.188;61.302;2023-05-07T12:11:45;3.55;;;0.50;;
74375;SDS011;62812;55.188;61.302;2023-05-07T12:14:13;5.28;;;0.65;;
74375;SDS011;62812;55.188;61.302;2023-05-07T12:16:42;7.57;;;1.13;;
74375;SDS011;62812;55.188;61.302;2023-05-07T12:19:10;6.45;;;0.70;;
74375;SDS011;62812;55.188;61.302;2023-05-07T12:21:40;8.75;;;0.90;;
74375;SDS011;62812;55.188;61.302;2023-05-07T12:24:09;6.07;;;1.17;;
74375;SDS011;62812;55.188;61.302;2023-05-07T12:26:37;7.93;;;1.10;;
74375;SDS011;62812;55.188;61.302;2023-05-07T12:29:06;14.70;;;0.95;;
74375;SDS011;62812;55.188;61.302;2023-05-07T12:31:40;6.22;;;0.80;;
74375;SDS011;62812;55.188;61.302;2023-05-07T12:34:08;8.75;;;0.75;;
74375;SDS011;62812;55.188;61.302;2023-05-07T12:36:41;7.55;;;0.60;;
74375;SDS011;62812;55.188;61.302;2023-05-07T12:39:10;8.20;;;0.90;;
74375;SDS011;62812;55.188;61.302;2023-05-07T12:44:22;7.97;;;0.75;;
74375;SDS011;62812;55.188;61.302;2023-05-07T12:46:51;5.28;;;0.90;;
74375;SDS011;62812;55.188;61.302;2023-05-07T12:49:18;8.90;;;0.75;;
74375;SDS011;62812;55.188;61.302;2023-05-07T12:51:51;3.70;;;0.70;;
74375;SDS011;62812;55.188;61.302;2023-05-07T12:54:30;5.55;;;0.93;;
74375;SDS011;62812;55.188;61.302;2023-05-07T12:57:01;4.60;;;1.00;;
74375;SDS011;62812;55.188;61.302;2023-05-07T12:59:33;4.82;;;0.68;;
74375;SDS011;62812;55.188;61.302;2023-05-07T13:02:02;7.55;;;0.70;;
74375;SDS011;62812;55.188;61.302;2023-05-07T13:04:37;8.32;;;0.82;;
74375;SDS011;62812;55.188;61.302;2023-05-07T13:07:05;5.43;;;0.70;;
74375;SDS011;62812;55.188;61.302;2023-05-07T13:09:37;6.80;;;0.65;;
74375;SDS011;62812;55.188;61.302;2023-05-07T13:12:07;9.48;;;0.93;;
74375;SDS011;62812;55.188;61.302;2023-05-07T13:14:39;4.18;;;0.68;;
74375;SDS011;62812;55.188;61.302;2023-05-07T13:17:09;2.40;;;0.77;;
74375;SDS011;62812;55.188;61.302;2023-05-07T13:19:54;6.85;;;0.85;;
74375;SDS011;62812;55.188;61.302;2023-05-07T13:22:21;4.80;;;0.85;;
74375;SDS011;62812;55.188;61.302;2023-05-07T13:24:49;5.00;;;0.73;;
74375;SDS011;62812;55.188;61.302;2023-05-07T13:27:17;5.57;;;0.68;;
74375;SDS011;62812;55.188;61.302;2023-05-07T13:29:54;4.72;;;0.98;;
74375;SDS011;62812;55.188;61.302;2023-05-07T13:32:21;4.63;;;0.70;;
74375;SDS011;62812;55.188;61.302;2023-05-07T13:34:48;6.20;;;0.60;;
74375;SDS011;62812;55.188;61.302;2023-05-07T13:37:15;5.35;;;0.40;;
74375;SDS011;62812;55.188;61.302;2023-05-07T13:39:42;4.28;;;0.60;;
74375;SDS011;62812;55.188;61.302;2023-05-07T13:42:13;5.10;;;0.52;;
74375;SDS011;62812;55.188;61.302;2023-05-07T13:44:45;3.13;;;0.60;;
74375;SDS011;62812;55.188;61.302;2023-05-07T13:47:14;3.95;;;0.47;;
74375;SDS011;62812;55.188;61.302;2023-05-07T13:49:45;3.10;;;0.40;;
74375;SDS011;62812;55.188;61.302;2023-05-07T13:52:16;2.28;;;0.40;;
74375;SDS011;62812;55.188;61.302;2023-05-07T13:54:43;6.30;;;0.68;;
74375;SDS011;62812;55.188;61.302;2023-05-07T13:57:13;4.57;;;0.47;;
74375;SDS011;62812;55.188;61.302;2023-05-07T13:59:42;2.78;;;0.50;;
74375;SDS011;62812;55.188;61.302;2023-05-07T14:02:10;2.58;;;0.70;;
74375;SDS011;62812;55.188;61.302;2023-05-07T14:04:39;4.53;;;0.40;;
74375;SDS011;62812;55.188;61.302;2023-05-07T14:07:10;4.07;;;0.50;;
74375;SDS011;62812;55.188;61.302;2023-05-07T14:09:38;5.70;;;0.73;;
74375;SDS011;62812;55.188;61.302;2023-05-07T14:12:07;5.80;;;0.57;;
74375;SDS011;62812;55.188;61.302;2023-05-07T14:14:36;5.45;;;0.60;;
74375;SDS011;62812;55.188;61.302;2023-05-07T14:17:11;2.60;;;0.28;;
74375;SDS011;62812;55.188;61.302;2023-05-07T14:19:40;5.38;;;0.40;;
74375;SDS011;62812;55.188;61.302;2023-05-07T14:22:07;6.10;;;0.52;;
74375;SDS011;62812;55.188;61.302;2023-05-07T14:24:48;4.65;;;0.45;;
74375;SDS011;62812;55.188;61.302;2023-05-07T14:27:16;2.15;;;0.50;;
74375;SDS011;62812;55.188;61.302;2023-05-07T14:29:45;3.00;;;0.63;;
74375;SDS011;62812;55.188;61.302;2023-05-07T14:32:17;2.05;;;0.50;;
74375;SDS011;62812;55.188;61.302;2023-05-07T14:34:46;4.63;;;0.55;;
74375;SDS011;62812;55.188;61.302;2023-05-07T14:37:16;6.47;;;0.70;;
74375;SDS011;62812;55.188;61.302;2023-05-07T14:39:45;3.42;;;0.80;;
74375;SDS011;62812;55.188;61.302;2023-05-07T14:42:13;2.50;;;0.80;;
74375;SDS011;62812;55.188;61.302;2023-05-07T14:44:42;2.58;;;0.47;;
74375;SDS011;62812;55.188;61.302;2023-05-07T14:49:41;1.15;;;0.30;;
74375;SDS011;62812;55.188;61.302;2023-05-07T14:52:12;2.08;;;0.22;;
74375;SDS011;62812;55.188;61.302;2023-05-07T14:54:43;0.55;;;0.15;;
74375;SDS011;62812;55.188;61.302;2023-05-07T14:57:13;1.63;;;0.20;;
74375;SDS011;62812;55.188;61.302;2023-05-07T15:02:12;4.72;;;0.38;;
74375;SDS011;62812;55.188;61.302;2023-05-07T15:04:45;3.83;;;0.90;;
74375;SDS011;62812;55.188;61.302;2023-05-07T15:07:15;4.32;;;0.80;;
74375;SDS011;62812;55.188;61.302;2023-05-07T15:09:42;6.60;;;0.75;;
74375;SDS011;62812;55.188;61.302;2023-05-07T15:12:10;2.83;;;0.40;;
74375;SDS011;62812;55.188;61.302;2023-05-07T15:14:38;4.03;;;0.40;;
74375;SDS011;62812;55.188;61.302;2023-05-07T15:17:06;3.17;;;0.70;;
74375;SDS011;62812;55.188;61.302;2023-05-07T15:19:40;1.88;;;0.50;;